Terminal Aerodrome Forecast
Issued by NWS

Current Version | Previous Version | Text Only | Print | Product List | Glossary On
Versions: 1 2 3 4 5 6 7 8 9 10 11 12 13 14 15 16 17 18 19 20 21 22 23
397
FTUS44 KEWX 172339
TAFSSF
TAF
KSSF 172339Z 1800/1824 18011KT P6SM FEW250
     FM180700 17010KT P6SM OVC012
     FM181100 20009KT 2SM BR OVC007
     FM181200 21006KT 1SM BR OVC003
     FM181400 25007KT 4SM BR OVC007
     FM181600 29008KT P6SM BKN012
     FM181800 34014G24KT P6SM SCT250
     FM182000 26022G32KT P6SM SCT200=

USA.gov is the U.S. government's official web portal to all federal, state and local government web resources and services.